sensor_id;sensor_type;location;lat;lon;timestamp;P1;durP1;ratioP1;P2;durP2;ratioP2
81799;SDS011;71195;52.528;5.704;2023-09-12T00:01:13;30.70;;;15.05;;
81799;SDS011;71195;52.528;5.704;2023-09-12T00:03:42;29.20;;;14.27;;
81799;SDS011;71195;52.528;5.704;2023-09-12T00:06:11;27.48;;;14.45;;
81799;SDS011;71195;52.528;5.704;2023-09-12T00:08:43;23.70;;;12.32;;
81799;SDS011;71195;52.528;5.704;2023-09-12T00:11:12;26.45;;;12.82;;
81799;SDS011;71195;52.528;5.704;2023-09-12T00:13:41;28.42;;;13.18;;
81799;SDS011;71195;52.528;5.704;2023-09-12T00:16:10;30.08;;;13.95;;
81799;SDS011;71195;52.528;5.704;2023-09-12T00:18:40;28.63;;;13.63;;
81799;SDS011;71195;52.528;5.704;2023-09-12T00:21:09;26.80;;;13.88;;
81799;SDS011;71195;52.528;5.704;2023-09-12T00:23:38;26.05;;;12.70;;
81799;SDS011;71195;52.528;5.704;2023-09-12T00:26:10;28.92;;;14.68;;
81799;SDS011;71195;52.528;5.704;2023-09-12T00:28:41;30.70;;;13.60;;
81799;SDS011;71195;52.528;5.704;2023-09-12T00:31:10;28.77;;;13.68;;
81799;SDS011;71195;52.528;5.704;2023-09-12T00:33:39;24.70;;;12.57;;
81799;SDS011;71195;52.528;5.704;2023-09-12T00:36:08;32.35;;;14.35;;
81799;SDS011;71195;52.528;5.704;2023-09-12T00:38:38;27.80;;;13.70;;
81799;SDS011;71195;52.528;5.704;2023-09-12T00:41:09;27.25;;;12.52;;
81799;SDS011;71195;52.528;5.704;2023-09-12T00:43:39;25.30;;;12.32;;
81799;SDS011;71195;52.528;5.704;2023-09-12T00:46:08;26.08;;;13.10;;
81799;SDS011;71195;52.528;5.704;2023-09-12T00:48:40;27.48;;;13.40;;
81799;SDS011;71195;52.528;5.704;2023-09-12T00:51:09;28.98;;;12.38;;
81799;SDS011;71195;52.528;5.704;2023-09-12T00:53:39;23.60;;;12.73;;
81799;SDS011;71195;52.528;5.704;2023-09-12T00:56:14;26.88;;;12.98;;
81799;SDS011;71195;52.528;5.704;2023-09-12T00:58:43;24.88;;;13.70;;
81799;SDS011;71195;52.528;5.704;2023-09-12T01:01:16;29.08;;;13.95;;
81799;SDS011;71195;52.528;5.704;2023-09-12T01:03:46;25.58;;;13.07;;
81799;SDS011;71195;52.528;5.704;2023-09-12T01:06:16;27.95;;;14.52;;
81799;SDS011;71195;52.528;5.704;2023-09-12T01:08:48;26.92;;;13.95;;
81799;SDS011;71195;52.528;5.704;2023-09-12T01:11:20;27.75;;;13.23;;
81799;SDS011;71195;52.528;5.704;2023-09-12T01:13:49;29.05;;;13.07;;
81799;SDS011;71195;52.528;5.704;2023-09-12T01:16:18;28.65;;;13.90;;
81799;SDS011;71195;52.528;5.704;2023-09-12T01:18:48;27.45;;;13.93;;
81799;SDS011;71195;52.528;5.704;2023-09-12T01:24:32;28.67;;;12.43;;
81799;SDS011;71195;52.528;5.704;2023-09-12T01:27:24;25.80;;;12.65;;
81799;SDS011;71195;52.528;5.704;2023-09-12T01:29:57;26.63;;;13.00;;
81799;SDS011;71195;52.528;5.704;2023-09-12T01:32:29;26.60;;;12.95;;
81799;SDS011;71195;52.528;5.704;2023-09-12T01:34:59;25.08;;;13.57;;
81799;SDS011;71195;52.528;5.704;2023-09-12T01:37:29;25.48;;;12.15;;
81799;SDS011;71195;52.528;5.704;2023-09-12T01:39:59;23.83;;;12.35;;
81799;SDS011;71195;52.528;5.704;2023-09-12T01:42:34;25.95;;;13.23;;
81799;SDS011;71195;52.528;5.704;2023-09-12T01:45:05;29.40;;;15.20;;
81799;SDS011;71195;52.528;5.704;2023-09-12T01:47:38;30.40;;;14.60;;
81799;SDS011;71195;52.528;5.704;2023-09-12T01:50:09;29.42;;;14.27;;
81799;SDS011;71195;52.528;5.704;2023-09-12T01:52:42;26.23;;;13.68;;
81799;SDS011;71195;52.528;5.704;2023-09-12T01:55:12;31.55;;;15.43;;
81799;SDS011;71195;52.528;5.704;2023-09-12T01:57:45;28.92;;;14.50;;
81799;SDS011;71195;52.528;5.704;2023-09-12T02:00:17;28.65;;;14.25;;
81799;SDS011;71195;52.528;5.704;2023-09-12T02:05:17;25.58;;;12.77;;
81799;SDS011;71195;52.528;5.704;2023-09-12T02:07:48;26.10;;;13.38;;
81799;SDS011;71195;52.528;5.704;2023-09-12T02:10:18;26.13;;;14.20;;
81799;SDS011;71195;52.528;5.704;2023-09-12T02:12:49;25.70;;;12.95;;
81799;SDS011;71195;52.528;5.704;2023-09-12T02:15:19;28.73;;;14.27;;
81799;SDS011;71195;52.528;5.704;2023-09-12T02:17:48;31.45;;;13.77;;
81799;SDS011;71195;52.528;5.704;2023-09-12T02:20:18;26.23;;;13.60;;
81799;SDS011;71195;52.528;5.704;2023-09-12T02:22:47;28.52;;;13.35;;
81799;SDS011;71195;52.528;5.704;2023-09-12T02:25:17;28.40;;;13.63;;
81799;SDS011;71195;52.528;5.704;2023-09-12T02:27:50;29.25;;;14.00;;
81799;SDS011;71195;52.528;5.704;2023-09-12T02:30:19;31.33;;;14.80;;
81799;SDS011;71195;52.528;5.704;2023-09-12T02:32:48;26.75;;;12.93;;
81799;SDS011;71195;52.528;5.704;2023-09-12T02:35:17;25.75;;;11.52;;
81799;SDS011;71195;52.528;5.704;2023-09-12T02:37:47;29.52;;;14.18;;
81799;SDS011;71195;52.528;5.704;2023-09-12T02:40:16;30.40;;;14.50;;
81799;SDS011;71195;52.528;5.704;2023-09-12T02:42:45;31.75;;;14.68;;
81799;SDS011;71195;52.528;5.704;2023-09-12T02:45:17;26.13;;;13.15;;
81799;SDS011;71195;52.528;5.704;2023-09-12T02:47:47;26.13;;;12.30;;
81799;SDS011;71195;52.528;5.704;2023-09-12T02:50:16;29.42;;;13.93;;
81799;SDS011;71195;52.528;5.704;2023-09-12T02:52:45;26.17;;;11.77;;
81799;SDS011;71195;52.528;5.704;2023-09-12T02:55:15;29.70;;;14.38;;
81799;SDS011;71195;52.528;5.704;2023-09-12T02:57:44;23.60;;;12.43;;
81799;SDS011;71195;52.528;5.704;2023-09-12T03:00:13;26.67;;;12.60;;
81799;SDS011;71195;52.528;5.704;2023-09-12T03:02:46;23.20;;;11.40;;
81799;SDS011;71195;52.528;5.704;2023-09-12T03:05:15;21.48;;;9.43;;
81799;SDS011;71195;52.528;5.704;2023-09-12T03:07:44;23.85;;;11.30;;
81799;SDS011;71195;52.528;5.704;2023-09-12T03:10:15;23.58;;;10.77;;
81799;SDS011;71195;52.528;5.704;2023-09-12T03:12:44;25.95;;;12.27;;
81799;SDS011;71195;52.528;5.704;2023-09-12T03:15:13;24.70;;;11.30;;
81799;SDS011;71195;52.528;5.704;2023-09-12T03:17:43;29.55;;;12.80;;
81799;SDS011;71195;52.528;5.704;2023-09-12T03:20:14;27.02;;;12.15;;
81799;SDS011;71195;52.528;5.704;2023-09-12T03:22:45;24.42;;;12.25;;
81799;SDS011;71195;52.528;5.704;2023-09-12T03:25:15;33.63;;;13.90;;
81799;SDS011;71195;52.528;5.704;2023-09-12T03:27:44;26.55;;;13.98;;
81799;SDS011;71195;52.528;5.704;2023-09-12T03:30:13;30.48;;;15.02;;
81799;SDS011;71195;52.528;5.704;2023-09-12T03:32:43;27.13;;;13.00;;
81799;SDS011;71195;52.528;5.704;2023-09-12T03:35:14;28.17;;;13.68;;
81799;SDS011;71195;52.528;5.704;2023-09-12T03:37:44;30.80;;;14.43;;
81799;SDS011;71195;52.528;5.704;2023-09-12T03:40:13;30.00;;;13.10;;
81799;SDS011;71195;52.528;5.704;2023-09-12T03:42:42;28.00;;;12.57;;
81799;SDS011;71195;52.528;5.704;2023-09-12T03:45:12;30.88;;;13.15;;
81799;SDS011;71195;52.528;5.704;2023-09-12T03:47:41;28.27;;;12.27;;
81799;SDS011;71195;52.528;5.704;2023-09-12T03:50:15;27.67;;;13.07;;
81799;SDS011;71195;52.528;5.704;2023-09-12T03:52:44;31.10;;;13.90;;
81799;SDS011;71195;52.528;5.704;2023-09-12T03:55:14;27.85;;;12.98;;
81799;SDS011;71195;52.528;5.704;2023-09-12T03:57:43;28.02;;;13.48;;
81799;SDS011;71195;52.528;5.704;2023-09-12T04:00:13;30.17;;;13.57;;
81799;SDS011;71195;52.528;5.704;2023-09-12T04:02:47;32.53;;;13.18;;
81799;SDS011;71195;52.528;5.704;2023-09-12T04:05:19;29.77;;;12.30;;
81799;SDS011;71195;52.528;5.704;2023-09-12T04:07:48;27.77;;;13.93;;
81799;SDS011;71195;52.528;5.704;2023-09-12T04:10:17;29.05;;;13.60;;
81799;SDS011;71195;52.528;5.704;2023-09-12T04:12:48;33.45;;;14.63;;
81799;SDS011;71195;52.528;5.704;2023-09-12T04:15:17;26.92;;;13.52;;
81799;SDS011;71195;52.528;5.704;2023-09-12T04:17:46;37.85;;;15.07;;
81799;SDS011;71195;52.528;5.704;2023-09-12T04:20:19;39.75;;;15.25;;
81799;SDS011;71195;52.528;5.704;2023-09-12T04:22:48;34.42;;;14.27;;
81799;SDS011;71195;52.528;5.704;2023-09-12T04:25:17;31.20;;;15.20;;
81799;SDS011;71195;52.528;5.704;2023-09-12T04:27:47;35.40;;;15.35;;
81799;SDS011;71195;52.528;5.704;2023-09-12T04:30:17;34.67;;;15.55;;
81799;SDS011;71195;52.528;5.704;2023-09-12T04:32:46;38.88;;;15.75;;
81799;SDS011;71195;52.528;5.704;2023-09-12T04:35:18;34.63;;;15.75;;
81799;SDS011;71195;52.528;5.704;2023-09-12T04:37:48;34.92;;;16.52;;
81799;SDS011;71195;52.528;5.704;2023-09-12T04:40:17;35.10;;;15.90;;
81799;SDS011;71195;52.528;5.704;2023-09-12T04:42:46;37.92;;;16.23;;
81799;SDS011;71195;52.528;5.704;2023-09-12T04:45:16;38.20;;;15.45;;
81799;SDS011;71195;52.528;5.704;2023-09-12T04:47:45;38.10;;;15.15;;
81799;SDS011;71195;52.528;5.704;2023-09-12T04:50:14;36.10;;;16.05;;
81799;SDS011;71195;52.528;5.704;2023-09-12T04:52:46;40.45;;;16.17;;
81799;SDS011;71195;52.528;5.704;2023-09-12T04:55:16;34.17;;;15.27;;
81799;SDS011;71195;52.528;5.704;2023-09-12T04:57:45;36.83;;;16.35;;
81799;SDS011;71195;52.528;5.704;2023-09-12T05:00:14;41.70;;;18.08;;
81799;SDS011;71195;52.528;5.704;2023-09-12T05:02:44;38.25;;;16.08;;
81799;SDS011;71195;52.528;5.704;2023-09-12T05:05:13;36.55;;;15.93;;
81799;SDS011;71195;52.528;5.704;2023-09-12T05:07:42;36.35;;;15.65;;
81799;SDS011;71195;52.528;5.704;2023-09-12T05:10:14;37.70;;;16.58;;
81799;SDS011;71195;52.528;5.704;2023-09-12T05:12:44;36.67;;;15.30;;
81799;SDS011;71195;52.528;5.704;2023-09-12T05:15:14;40.45;;;17.73;;
81799;SDS011;71195;52.528;5.704;2023-09-12T05:17:43;42.47;;;16.98;;
81799;SDS011;71195;52.528;5.704;2023-09-12T05:20:12;38.13;;;15.40;;
81799;SDS011;71195;52.528;5.704;2023-09-12T05:22:41;37.88;;;16.38;;
81799;SDS011;71195;52.528;5.704;2023-09-12T05:25:10;37.38;;;16.02;;
81799;SDS011;71195;52.528;5.704;2023-09-12T05:27:42;40.38;;;16.48;;
81799;SDS011;71195;52.528;5.704;2023-09-12T05:30:12;35.63;;;15.60;;
81799;SDS011;71195;52.528;5.704;2023-09-12T05:32:41;43.05;;;17.48;;
81799;SDS011;71195;52.528;5.704;2023-09-12T05:35:11;34.60;;;17.20;;
81799;SDS011;71195;52.528;5.704;2023-09-12T05:37:40;41.38;;;17.48;;
81799;SDS011;71195;52.528;5.704;2023-09-12T05:40:10;34.63;;;16.17;;
81799;SDS011;71195;52.528;5.704;2023-09-12T05:42:39;38.20;;;16.08;;
81799;SDS011;71195;52.528;5.704;2023-09-12T05:45:11;40.60;;;17.45;;
81799;SDS011;71195;52.528;5.704;2023-09-12T05:47:41;41.80;;;17.55;;
81799;SDS011;71195;52.528;5.704;2023-09-12T05:50:10;36.05;;;17.95;;
81799;SDS011;71195;52.528;5.704;2023-09-12T05:52:39;37.78;;;17.17;;
81799;SDS011;71195;52.528;5.704;2023-09-12T05:55:11;35.78;;;16.65;;
81799;SDS011;71195;52.528;5.704;2023-09-12T05:57:41;36.92;;;18.33;;
81799;SDS011;71195;52.528;5.704;2023-09-12T06:00:13;40.63;;;17.65;;
81799;SDS011;71195;52.528;5.704;2023-09-12T06:02:44;36.33;;;17.50;;
81799;SDS011;71195;52.528;5.704;2023-09-12T06:05:13;37.72;;;15.90;;
81799;SDS011;71195;52.528;5.704;2023-09-12T06:07:43;36.58;;;16.27;;
81799;SDS011;71195;52.528;5.704;2023-09-12T06:10:12;39.85;;;17.05;;
81799;SDS011;71195;52.528;5.704;2023-09-12T06:12:41;35.63;;;15.80;;
81799;SDS011;71195;52.528;5.704;2023-09-12T06:15:13;39.33;;;18.00;;
81799;SDS011;71195;52.528;5.704;2023-09-12T06:20:12;36.28;;;16.20;;
81799;SDS011;71195;52.528;5.704;2023-09-12T06:22:41;41.15;;;16.13;;
81799;SDS011;71195;52.528;5.704;2023-09-12T06:25:10;37.92;;;16.10;;
81799;SDS011;71195;52.528;5.704;2023-09-12T06:27:40;44.63;;;18.80;;
81799;SDS011;71195;52.528;5.704;2023-09-12T06:30:09;41.08;;;17.83;;
81799;SDS011;71195;52.528;5.704;2023-09-12T06:32:42;36.47;;;16.48;;
81799;SDS011;71195;52.528;5.704;2023-09-12T06:35:11;38.13;;;18.65;;
81799;SDS011;71195;52.528;5.704;2023-09-12T06:37:41;38.40;;;17.35;;
81799;SDS011;71195;52.528;5.704;2023-09-12T06:40:10;34.35;;;15.60;;
81799;SDS011;71195;52.528;5.704;2023-09-12T06:42:41;36.90;;;17.13;;
81799;SDS011;71195;52.528;5.704;2023-09-12T06:45:13;40.28;;;18.15;;
81799;SDS011;71195;52.528;5.704;2023-09-12T06:47:43;44.70;;;19.05;;
81799;SDS011;71195;52.528;5.704;2023-09-12T06:50:12;39.58;;;18.30;;
81799;SDS011;71195;52.528;5.704;2023-09-12T06:52:41;35.90;;;16.95;;
81799;SDS011;71195;52.528;5.704;2023-09-12T06:55:11;37.60;;;17.92;;
81799;SDS011;71195;52.528;5.704;2023-09-12T06:57:40;39.67;;;17.10;;
81799;SDS011;71195;52.528;5.704;2023-09-12T07:00:14;36.05;;;16.60;;
81799;SDS011;71195;52.528;5.704;2023-09-12T07:02:43;32.63;;;15.20;;
81799;SDS011;71195;52.528;5.704;2023-09-12T07:05:12;35.40;;;15.65;;
81799;SDS011;71195;52.528;5.704;2023-09-12T07:07:41;32.90;;;15.73;;
81799;SDS011;71195;52.528;5.704;2023-09-12T07:10:11;33.28;;;15.95;;
81799;SDS011;71195;52.528;5.704;2023-09-12T07:12:40;39.33;;;16.75;;
81799;SDS011;71195;52.528;5.704;2023-09-12T07:15:10;33.10;;;15.55;;
81799;SDS011;71195;52.528;5.704;2023-09-12T07:17:42;33.63;;;15.32;;
81799;SDS011;71195;52.528;5.704;2023-09-12T07:20:11;33.75;;;13.60;;
81799;SDS011;71195;52.528;5.704;2023-09-12T07:22:41;29.83;;;14.30;;
81799;SDS011;71195;52.528;5.704;2023-09-12T07:25:10;29.38;;;15.35;;
81799;SDS011;71195;52.528;5.704;2023-09-12T07:27:40;32.10;;;13.90;;
81799;SDS011;71195;52.528;5.704;2023-09-12T07:30:10;32.55;;;16.23;;
81799;SDS011;71195;52.528;5.704;2023-09-12T07:32:42;30.02;;;14.43;;
81799;SDS011;71195;52.528;5.704;2023-09-12T07:37:40;29.67;;;14.32;;
81799;SDS011;71195;52.528;5.704;2023-09-12T07:40:10;30.63;;;15.02;;
81799;SDS011;71195;52.528;5.704;2023-09-12T07:42:39;28.25;;;13.60;;
81799;SDS011;71195;52.528;5.704;2023-09-12T07:45:09;28.67;;;14.18;;
81799;SDS011;71195;52.528;5.704;2023-09-12T07:47:42;30.80;;;14.50;;
81799;SDS011;71195;52.528;5.704;2023-09-12T07:50:11;32.30;;;15.13;;
81799;SDS011;71195;52.528;5.704;2023-09-12T07:52:40;28.27;;;14.55;;
81799;SDS011;71195;52.528;5.704;2023-09-12T07:55:10;29.55;;;13.95;;
81799;SDS011;71195;52.528;5.704;2023-09-12T07:57:39;31.63;;;14.85;;
81799;SDS011;71195;52.528;5.704;2023-09-12T08:00:09;29.60;;;15.13;;
81799;SDS011;71195;52.528;5.704;2023-09-12T08:02:41;30.02;;;14.05;;
81799;SDS011;71195;52.528;5.704;2023-09-12T08:05:11;29.58;;;14.18;;
81799;SDS011;71195;52.528;5.704;2023-09-12T08:07:40;31.60;;;16.02;;
81799;SDS011;71195;52.528;5.704;2023-09-12T08:10:09;27.98;;;14.30;;
81799;SDS011;71195;52.528;5.704;2023-09-12T08:12:39;31.08;;;15.82;;
81799;SDS011;71195;52.528;5.704;2023-09-12T08:15:08;31.25;;;14.57;;
81799;SDS011;71195;52.528;5.704;2023-09-12T08:17:38;34.60;;;15.43;;
81799;SDS011;71195;52.528;5.704;2023-09-12T08:20:11;32.70;;;14.30;;
81799;SDS011;71195;52.528;5.704;2023-09-12T08:22:40;35.13;;;14.85;;
81799;SDS011;71195;52.528;5.704;2023-09-12T08:25:09;29.58;;;15.32;;
81799;SDS011;71195;52.528;5.704;2023-09-12T08:27:40;33.10;;;16.50;;
81799;SDS011;71195;52.528;5.704;2023-09-12T08:30:11;29.70;;;12.55;;
81799;SDS011;71195;52.528;5.704;2023-09-12T08:32:43;31.02;;;14.73;;
81799;SDS011;71195;52.528;5.704;2023-09-12T08:35:13;34.25;;;15.13;;
81799;SDS011;71195;52.528;5.704;2023-09-12T08:37:42;32.15;;;15.13;;
81799;SDS011;71195;52.528;5.704;2023-09-12T08:40:12;32.90;;;14.38;;
81799;SDS011;71195;52.528;5.704;2023-09-12T08:42:41;33.75;;;15.40;;
81799;SDS011;71195;52.528;5.704;2023-09-12T08:45:13;31.10;;;14.85;;
81799;SDS011;71195;52.528;5.704;2023-09-12T08:47:48;29.67;;;13.93;;
81799;SDS011;71195;52.528;5.704;2023-09-12T08:50:18;35.67;;;15.05;;
81799;SDS011;71195;52.528;5.704;2023-09-12T08:52:50;34.75;;;13.85;;
81799;SDS011;71195;52.528;5.704;2023-09-12T08:55:19;33.53;;;14.77;;
81799;SDS011;71195;52.528;5.704;2023-09-12T08:57:50;32.13;;;14.43;;
81799;SDS011;71195;52.528;5.704;2023-09-12T09:00:20;29.85;;;14.32;;
81799;SDS011;71195;52.528;5.704;2023-09-12T09:02:53;31.98;;;14.73;;
81799;SDS011;71195;52.528;5.704;2023-09-12T09:05:23;30.77;;;14.88;;
81799;SDS011;71195;52.528;5.704;2023-09-12T09:07:54;34.22;;;15.18;;
81799;SDS011;71195;52.528;5.704;2023-09-12T09:10:24;37.72;;;15.88;;
81799;SDS011;71195;52.528;5.704;2023-09-12T09:12:58;34.88;;;14.57;;
81799;SDS011;71195;52.528;5.704;2023-09-12T09:15:27;34.83;;;13.30;;
81799;SDS011;71195;52.528;5.704;2023-09-12T09:18:01;29.27;;;13.93;;
81799;SDS011;71195;52.528;5.704;2023-09-12T09:20:32;35.60;;;15.55;;
81799;SDS011;71195;52.528;5.704;2023-09-12T09:23:03;30.48;;;15.65;;
81799;SDS011;71195;52.528;5.704;2023-09-12T09:25:34;30.02;;;14.20;;
81799;SDS011;71195;52.528;5.704;2023-09-12T09:28:05;31.70;;;14.45;;
81799;SDS011;71195;52.528;5.704;2023-09-12T09:30:45;33.72;;;14.93;;
81799;SDS011;71195;52.528;5.704;2023-09-12T09:33:19;30.02;;;14.32;;
81799;SDS011;71195;52.528;5.704;2023-09-12T09:35:48;27.58;;;13.68;;
81799;SDS011;71195;52.528;5.704;2023-09-12T09:38:19;31.75;;;14.45;;
81799;SDS011;71195;52.528;5.704;2023-09-12T09:40:49;26.38;;;12.60;;
81799;SDS011;71195;52.528;5.704;2023-09-12T09:43:19;29.10;;;12.63;;
81799;SDS011;71195;52.528;5.704;2023-09-12T09:45:50;30.05;;;11.98;;
81799;SDS011;71195;52.528;5.704;2023-09-12T09:48:23;27.38;;;11.63;;
81799;SDS011;71195;52.528;5.704;2023-09-12T09:50:53;26.48;;;11.98;;
81799;SDS011;71195;52.528;5.704;2023-09-12T09:53:29;22.48;;;9.52;;
81799;SDS011;71195;52.528;5.704;2023-09-12T09:56:07;21.48;;;9.77;;
81799;SDS011;71195;52.528;5.704;2023-09-12T09:58:46;24.48;;;10.02;;
81799;SDS011;71195;52.528;5.704;2023-09-12T10:01:17;23.35;;;10.40;;
81799;SDS011;71195;52.528;5.704;2023-09-12T10:03:50;19.50;;;10.10;;
81799;SDS011;71195;52.528;5.704;2023-09-12T10:06:20;24.83;;;11.10;;
81799;SDS011;71195;52.528;5.704;2023-09-12T10:08:50;26.35;;;9.98;;
81799;SDS011;71195;52.528;5.704;2023-09-12T10:11:22;19.75;;;8.73;;
81799;SDS011;71195;52.528;5.704;2023-09-12T10:13:53;19.40;;;8.18;;
81799;SDS011;71195;52.528;5.704;2023-09-12T10:16:24;20.13;;;8.10;;
81799;SDS011;71195;52.528;5.704;2023-09-12T10:19:02;18.27;;;8.45;;
81799;SDS011;71195;52.528;5.704;2023-09-12T10:21:36;18.50;;;8.00;;
81799;SDS011;71195;52.528;5.704;2023-09-12T10:24:10;19.27;;;7.80;;
81799;SDS011;71195;52.528;5.704;2023-09-12T10:26:40;16.25;;;7.68;;
81799;SDS011;71195;52.528;5.704;2023-09-12T10:29:12;21.50;;;8.07;;
81799;SDS011;71195;52.528;5.704;2023-09-12T10:31:42;14.75;;;7.40;;
81799;SDS011;71195;52.528;5.704;2023-09-12T10:34:14;21.70;;;8.48;;
81799;SDS011;71195;52.528;5.704;2023-09-12T10:36:44;18.45;;;8.15;;
81799;SDS011;71195;52.528;5.704;2023-09-12T10:39:14;17.65;;;8.45;;
81799;SDS011;71195;52.528;5.704;2023-09-12T10:41:43;19.30;;;8.68;;
81799;SDS011;71195;52.528;5.704;2023-09-12T10:44:14;16.63;;;7.68;;
81799;SDS011;71195;52.528;5.704;2023-09-12T10:46:45;15.65;;;7.10;;
81799;SDS011;71195;52.528;5.704;2023-09-12T10:49:18;21.27;;;7.47;;
81799;SDS011;71195;52.528;5.704;2023-09-12T10:51:47;14.00;;;7.40;;
81799;SDS011;71195;52.528;5.704;2023-09-12T10:54:22;15.18;;;7.95;;
81799;SDS011;71195;52.528;5.704;2023-09-12T10:57:02;12.48;;;6.40;;
81799;SDS011;71195;52.528;5.704;2023-09-12T10:59:33;13.70;;;6.22;;
81799;SDS011;71195;52.528;5.704;2023-09-12T11:04:51;12.65;;;5.82;;
81799;SDS011;71195;52.528;5.704;2023-09-12T11:07:33;12.57;;;5.47;;
81799;SDS011;71195;52.528;5.704;2023-09-12T11:10:19;13.25;;;5.65;;
81799;SDS011;71195;52.528;5.704;2023-09-12T11:12:50;14.35;;;6.13;;
81799;SDS011;71195;52.528;5.704;2023-09-12T11:15:21;11.93;;;5.55;;
81799;SDS011;71195;52.528;5.704;2023-09-12T11:17:59;13.57;;;6.13;;
81799;SDS011;71195;52.528;5.704;2023-09-12T11:23:21;12.85;;;6.63;;
81799;SDS011;71195;52.528;5.704;2023-09-12T11:26:02;11.98;;;5.80;;
81799;SDS011;71195;52.528;5.704;2023-09-12T11:28:33;13.68;;;5.75;;
81799;SDS011;71195;52.528;5.704;2023-09-12T11:31:03;12.20;;;5.38;;
81799;SDS011;71195;52.528;5.704;2023-09-12T11:33:33;12.35;;;5.05;;
81799;SDS011;71195;52.528;5.704;2023-09-12T11:36:05;9.65;;;4.88;;
81799;SDS011;71195;52.528;5.704;2023-09-12T11:38:36;11.20;;;5.47;;
81799;SDS011;71195;52.528;5.704;2023-09-12T11:41:05;8.93;;;4.20;;
81799;SDS011;71195;52.528;5.704;2023-09-12T11:43:36;9.55;;;3.80;;
81799;SDS011;71195;52.528;5.704;2023-09-12T11:46:06;8.55;;;4.25;;
81799;SDS011;71195;52.528;5.704;2023-09-12T11:48:37;7.47;;;4.15;;
81799;SDS011;71195;52.528;5.704;2023-09-12T11:51:10;10.85;;;5.38;;
81799;SDS011;71195;52.528;5.704;2023-09-12T11:53:41;11.38;;;5.43;;
81799;SDS011;71195;52.528;5.704;2023-09-12T11:56:11;10.63;;;4.70;;
81799;SDS011;71195;52.528;5.704;2023-09-12T11:58:42;9.52;;;4.43;;
81799;SDS011;71195;52.528;5.704;2023-09-12T12:01:12;6.57;;;3.30;;
81799;SDS011;71195;52.528;5.704;2023-09-12T12:03:41;6.85;;;3.70;;
81799;SDS011;71195;52.528;5.704;2023-09-12T12:06:13;10.38;;;4.20;;
81799;SDS011;71195;52.528;5.704;2023-09-12T12:08:42;6.05;;;2.58;;
81799;SDS011;71195;52.528;5.704;2023-09-12T12:11:11;8.20;;;3.63;;
81799;SDS011;71195;52.528;5.704;2023-09-12T12:13:41;12.20;;;5.07;;
81799;SDS011;71195;52.528;5.704;2023-09-12T12:16:16;8.48;;;4.40;;
81799;SDS011;71195;52.528;5.704;2023-09-12T12:18:46;10.38;;;4.75;;
81799;SDS011;71195;52.528;5.704;2023-09-12T12:21:22;8.43;;;4.32;;
81799;SDS011;71195;52.528;5.704;2023-09-12T12:23:59;8.77;;;4.32;;
81799;SDS011;71195;52.528;5.704;2023-09-12T12:26:30;9.00;;;3.45;;
81799;SDS011;71195;52.528;5.704;2023-09-12T12:28:59;8.35;;;3.50;;
81799;SDS011;71195;52.528;5.704;2023-09-12T12:31:29;7.88;;;2.90;;
81799;SDS011;71195;52.528;5.704;2023-09-12T12:33:58;8.40;;;2.88;;
81799;SDS011;71195;52.528;5.704;2023-09-12T12:36:31;5.18;;;2.58;;
81799;SDS011;71195;52.528;5.704;2023-09-12T12:39:00;7.15;;;3.58;;
81799;SDS011;71195;52.528;5.704;2023-09-12T12:41:30;8.15;;;3.35;;
81799;SDS011;71195;52.528;5.704;2023-09-12T12:44:01;7.28;;;3.97;;
81799;SDS011;71195;52.528;5.704;2023-09-12T12:46:30;7.70;;;4.18;;
81799;SDS011;71195;52.528;5.704;2023-09-12T12:48:59;7.65;;;4.07;;
81799;SDS011;71195;52.528;5.704;2023-09-12T12:51:31;13.55;;;5.65;;
81799;SDS011;71195;52.528;5.704;2023-09-12T12:54:03;14.80;;;6.85;;
81799;SDS011;71195;52.528;5.704;2023-09-12T12:56:33;14.60;;;6.75;;
81799;SDS011;71195;52.528;5.704;2023-09-12T12:59:04;12.75;;;6.65;;
81799;SDS011;71195;52.528;5.704;2023-09-12T13:01:34;15.90;;;7.22;;
81799;SDS011;71195;52.528;5.704;2023-09-12T13:04:05;13.60;;;6.55;;
81799;SDS011;71195;52.528;5.704;2023-09-12T13:06:38;14.40;;;6.25;;
81799;SDS011;71195;52.528;5.704;2023-09-12T13:09:07;9.15;;;5.10;;
81799;SDS011;71195;52.528;5.704;2023-09-12T13:11:40;10.65;;;3.55;;
81799;SDS011;71195;52.528;5.704;2023-09-12T13:14:09;8.38;;;3.55;;
81799;SDS011;71195;52.528;5.704;2023-09-12T13:16:39;7.43;;;3.70;;
81799;SDS011;71195;52.528;5.704;2023-09-12T13:19:08;7.00;;;3.17;;
81799;SDS011;71195;52.528;5.704;2023-09-12T13:21:42;5.97;;;3.20;;
81799;SDS011;71195;52.528;5.704;2023-09-12T13:24:11;12.23;;;4.35;;
81799;SDS011;71195;52.528;5.704;2023-09-12T13:26:40;13.70;;;5.07;;
81799;SDS011;71195;52.528;5.704;2023-09-12T13:29:12;12.32;;;5.45;;
81799;SDS011;71195;52.528;5.704;2023-09-12T13:31:42;11.05;;;4.72;;
81799;SDS011;71195;52.528;5.704;2023-09-12T13:34:11;10.05;;;4.40;;
81799;SDS011;71195;52.528;5.704;2023-09-12T13:36:46;13.93;;;6.05;;
81799;SDS011;71195;52.528;5.704;2023-09-12T13:39:29;11.75;;;4.88;;
81799;SDS011;71195;52.528;5.704;2023-09-12T13:41:58;12.35;;;4.90;;
81799;SDS011;71195;52.528;5.704;2023-09-12T13:44:29;11.30;;;5.63;;
81799;SDS011;71195;52.528;5.704;2023-09-12T13:46:58;13.23;;;6.07;;
81799;SDS011;71195;52.528;5.704;2023-09-12T13:49:28;11.65;;;5.30;;
81799;SDS011;71195;52.528;5.704;2023-09-12T13:51:59;12.43;;;6.38;;
81799;SDS011;71195;52.528;5.704;2023-09-12T13:54:29;14.90;;;5.70;;
81799;SDS011;71195;52.528;5.704;2023-09-12T13:56:58;9.80;;;4.68;;
81799;SDS011;71195;52.528;5.704;2023-09-12T13:59:28;9.13;;;4.45;;
81799;SDS011;71195;52.528;5.704;2023-09-12T14:01:57;10.57;;;5.25;;
81799;SDS011;71195;52.528;5.704;2023-09-12T14:04:27;11.40;;;6.03;;
81799;SDS011;71195;52.528;5.704;2023-09-12T14:06:53;11.10;;;5.43;;
81799;SDS011;71195;52.528;5.704;2023-09-12T14:09:31;11.32;;;4.50;;
81799;SDS011;71195;52.528;5.704;2023-09-12T14:12:00;7.80;;;4.93;;
81799;SDS011;71195;52.528;5.704;2023-09-12T14:14:33;12.35;;;6.32;;
81799;SDS011;71195;52.528;5.704;2023-09-12T14:17:03;14.27;;;6.35;;
81799;SDS011;71195;52.528;5.704;2023-09-12T14:19:32;12.48;;;6.35;;
81799;SDS011;71195;52.528;5.704;2023-09-12T14:22:02;15.82;;;7.07;;
81799;SDS011;71195;52.528;5.704;2023-09-12T14:24:34;13.13;;;6.15;;
81799;SDS011;71195;52.528;5.704;2023-09-12T14:27:04;16.40;;;6.60;;
81799;SDS011;71195;52.528;5.704;2023-09-12T14:29:33;10.52;;;5.78;;
81799;SDS011;71195;52.528;5.704;2023-09-12T14:32:05;8.57;;;4.05;;
81799;SDS011;71195;52.528;5.704;2023-09-12T14:34:34;11.60;;;5.10;;
81799;SDS011;71195;52.528;5.704;2023-09-12T14:37:03;5.00;;;3.45;;
81799;SDS011;71195;52.528;5.704;2023-09-12T14:39:36;4.80;;;2.42;;
81799;SDS011;71195;52.528;5.704;2023-09-12T14:42:05;4.53;;;2.53;;
81799;SDS011;71195;52.528;5.704;2023-09-12T14:44:37;6.95;;;1.40;;
81799;SDS011;71195;52.528;5.704;2023-09-12T14:47:06;3.85;;;1.63;;
81799;SDS011;71195;52.528;5.704;2023-09-12T14:49:36;3.33;;;1.58;;
81799;SDS011;71195;52.528;5.704;2023-09-12T14:52:05;2.42;;;1.40;;
81799;SDS011;71195;52.528;5.704;2023-09-12T14:54:37;4.80;;;1.60;;
81799;SDS011;71195;52.528;5.704;2023-09-12T14:57:07;3.40;;;1.90;;
81799;SDS011;71195;52.528;5.704;2023-09-12T14:59:36;5.93;;;2.45;;
81799;SDS011;71195;52.528;5.704;2023-09-12T15:02:16;5.75;;;2.67;;
81799;SDS011;71195;52.528;5.704;2023-09-12T15:04:48;6.50;;;3.45;;